sensor_id;sensor_type;location;lat;lon;timestamp;P1;durP1;ratioP1;P2;durP2;ratioP2
78057;SDS011;67265;52.514;13.292;2023-04-25T00:01:18;6.38;;;1.50;;
78057;SDS011;67265;52.514;13.292;2023-04-25T00:03:45;2.55;;;1.20;;
78057;SDS011;67265;52.514;13.292;2023-04-25T00:06:12;2.80;;;1.08;;
78057;SDS011;67265;52.514;13.292;2023-04-25T00:08:39;2.72;;;1.17;;
78057;SDS011;67265;52.514;13.292;2023-04-25T00:11:06;5.55;;;1.23;;
78057;SDS011;67265;52.514;13.292;2023-04-25T00:13:32;10.15;;;1.40;;
78057;SDS011;67265;52.514;13.292;2023-04-25T00:15:59;4.57;;;1.27;;
78057;SDS011;67265;52.514;13.292;2023-04-25T00:18:26;2.78;;;1.40;;
78057;SDS011;67265;52.514;13.292;2023-04-25T00:20:55;2.70;;;0.90;;
78057;SDS011;67265;52.514;13.292;2023-04-25T00:23:22;2.20;;;1.10;;
78057;SDS011;67265;52.514;13.292;2023-04-25T00:25:50;2.00;;;1.10;;
78057;SDS011;67265;52.514;13.292;2023-04-25T00:28:16;5.60;;;1.40;;
78057;SDS011;67265;52.514;13.292;2023-04-25T00:30:43;4.00;;;1.23;;
78057;SDS011;67265;52.514;13.292;2023-04-25T00:33:10;3.83;;;1.20;;
78057;SDS011;67265;52.514;13.292;2023-04-25T00:35:36;4.30;;;1.35;;
78057;SDS011;67265;52.514;13.292;2023-04-25T00:38:03;4.05;;;1.52;;
78057;SDS011;67265;52.514;13.292;2023-04-25T00:40:29;5.47;;;1.30;;
78057;SDS011;67265;52.514;13.292;2023-04-25T00:42:56;1.65;;;1.02;;
78057;SDS011;67265;52.514;13.292;2023-04-25T00:45:22;5.97;;;1.23;;
78057;SDS011;67265;52.514;13.292;2023-04-25T00:47:53;3.03;;;1.20;;
78057;SDS011;67265;52.514;13.292;2023-04-25T00:50:20;3.38;;;1.05;;
78057;SDS011;67265;52.514;13.292;2023-04-25T00:52:47;4.10;;;1.00;;
78057;SDS011;67265;52.514;13.292;2023-04-25T00:55:13;5.03;;;1.42;;
78057;SDS011;67265;52.514;13.292;2023-04-25T00:57:40;2.13;;;1.33;;
78057;SDS011;67265;52.514;13.292;2023-04-25T01:00:06;6.07;;;1.58;;
78057;SDS011;67265;52.514;13.292;2023-04-25T01:02:36;6.32;;;1.20;;
78057;SDS011;67265;52.514;13.292;2023-04-25T01:05:03;2.45;;;1.17;;
78057;SDS011;67265;52.514;13.292;2023-04-25T01:07:30;2.97;;;1.08;;
78057;SDS011;67265;52.514;13.292;2023-04-25T01:09:56;3.30;;;1.52;;
78057;SDS011;67265;52.514;13.292;2023-04-25T01:12:23;3.72;;;1.35;;
78057;SDS011;67265;52.514;13.292;2023-04-25T01:14:50;5.18;;;1.52;;
78057;SDS011;67265;52.514;13.292;2023-04-25T01:17:17;6.30;;;1.80;;
78057;SDS011;67265;52.514;13.292;2023-04-25T01:19:43;7.60;;;1.67;;
78057;SDS011;67265;52.514;13.292;2023-04-25T01:22:12;3.47;;;1.02;;
78057;SDS011;67265;52.514;13.292;2023-04-25T01:24:38;3.17;;;1.45;;
78057;SDS011;67265;52.514;13.292;2023-04-25T01:27:05;4.40;;;1.38;;
78057;SDS011;67265;52.514;13.292;2023-04-25T01:29:32;2.88;;;1.45;;
78057;SDS011;67265;52.514;13.292;2023-04-25T01:31:59;3.92;;;1.10;;
78057;SDS011;67265;52.514;13.292;2023-04-25T01:34:26;6.20;;;1.60;;
78057;SDS011;67265;52.514;13.292;2023-04-25T01:36:53;8.02;;;1.38;;
78057;SDS011;67265;52.514;13.292;2023-04-25T01:39:20;5.97;;;1.30;;
78057;SDS011;67265;52.514;13.292;2023-04-25T01:41:47;2.95;;;1.42;;
78057;SDS011;67265;52.514;13.292;2023-04-25T01:44:13;6.05;;;1.35;;
78057;SDS011;67265;52.514;13.292;2023-04-25T01:46:40;6.65;;;1.42;;
78057;SDS011;67265;52.514;13.292;2023-04-25T01:49:07;3.90;;;1.40;;
78057;SDS011;67265;52.514;13.292;2023-04-25T01:51:33;4.80;;;1.60;;
78057;SDS011;67265;52.514;13.292;2023-04-25T01:54:00;4.50;;;1.23;;
78057;SDS011;67265;52.514;13.292;2023-04-25T01:56:30;6.57;;;1.95;;
78057;SDS011;67265;52.514;13.292;2023-04-25T02:01:24;4.57;;;1.33;;
78057;SDS011;67265;52.514;13.292;2023-04-25T02:03:50;7.93;;;1.65;;
78057;SDS011;67265;52.514;13.292;2023-04-25T02:06:17;4.72;;;1.73;;
78057;SDS011;67265;52.514;13.292;2023-04-25T02:08:44;2.60;;;1.58;;
78057;SDS011;67265;52.514;13.292;2023-04-25T02:11:10;4.00;;;1.58;;
78057;SDS011;67265;52.514;13.292;2023-04-25T02:13:37;6.20;;;1.45;;
78057;SDS011;67265;52.514;13.292;2023-04-25T02:16:03;5.80;;;1.85;;
78057;SDS011;67265;52.514;13.292;2023-04-25T02:18:30;5.50;;;1.33;;
78057;SDS011;67265;52.514;13.292;2023-04-25T02:20:58;4.15;;;1.88;;
78057;SDS011;67265;52.514;13.292;2023-04-25T02:23:25;4.70;;;1.60;;
78057;SDS011;67265;52.514;13.292;2023-04-25T02:25:52;6.45;;;1.92;;
78057;SDS011;67265;52.514;13.292;2023-04-25T02:28:19;5.25;;;2.20;;
78057;SDS011;67265;52.514;13.292;2023-04-25T02:30:45;8.68;;;2.03;;
78057;SDS011;67265;52.514;13.292;2023-04-25T02:33:12;6.20;;;2.38;;
78057;SDS011;67265;52.514;13.292;2023-04-25T02:35:38;4.60;;;1.92;;
78057;SDS011;67265;52.514;13.292;2023-04-25T02:38:05;4.50;;;1.50;;
78057;SDS011;67265;52.514;13.292;2023-04-25T02:40:31;5.53;;;1.88;;
78057;SDS011;67265;52.514;13.292;2023-04-25T02:42:57;5.47;;;2.15;;
78057;SDS011;67265;52.514;13.292;2023-04-25T02:45:24;4.13;;;2.03;;
78057;SDS011;67265;52.514;13.292;2023-04-25T02:47:50;4.97;;;1.73;;
78057;SDS011;67265;52.514;13.292;2023-04-25T02:50:17;5.40;;;1.88;;
78057;SDS011;67265;52.514;13.292;2023-04-25T02:52:44;6.97;;;2.33;;
78057;SDS011;67265;52.514;13.292;2023-04-25T02:55:12;5.63;;;2.15;;
78057;SDS011;67265;52.514;13.292;2023-04-25T02:57:39;5.85;;;1.90;;
78057;SDS011;67265;52.514;13.292;2023-04-25T03:00:06;4.93;;;2.10;;
78057;SDS011;67265;52.514;13.292;2023-04-25T03:02:33;7.15;;;1.95;;
78057;SDS011;67265;52.514;13.292;2023-04-25T03:05:00;6.38;;;1.98;;
78057;SDS011;67265;52.514;13.292;2023-04-25T03:07:26;4.97;;;1.90;;
78057;SDS011;67265;52.514;13.292;2023-04-25T03:09:53;4.63;;;2.00;;
78057;SDS011;67265;52.514;13.292;2023-04-25T03:12:19;5.55;;;1.95;;
78057;SDS011;67265;52.514;13.292;2023-04-25T03:14:45;6.63;;;2.05;;
78057;SDS011;67265;52.514;13.292;2023-04-25T03:17:12;7.13;;;2.42;;
78057;SDS011;67265;52.514;13.292;2023-04-25T03:19:38;5.38;;;2.38;;
78057;SDS011;67265;52.514;13.292;2023-04-25T03:22:05;7.07;;;1.75;;
78057;SDS011;67265;52.514;13.292;2023-04-25T03:24:31;6.38;;;2.15;;
78057;SDS011;67265;52.514;13.292;2023-04-25T03:26:58;6.07;;;2.28;;
78057;SDS011;67265;52.514;13.292;2023-04-25T03:29:24;5.57;;;2.00;;
78057;SDS011;67265;52.514;13.292;2023-04-25T03:31:52;9.65;;;2.22;;
78057;SDS011;67265;52.514;13.292;2023-04-25T03:34:19;5.45;;;2.05;;
78057;SDS011;67265;52.514;13.292;2023-04-25T03:36:47;7.95;;;2.08;;
78057;SDS011;67265;52.514;13.292;2023-04-25T03:39:14;6.25;;;2.60;;
78057;SDS011;67265;52.514;13.292;2023-04-25T03:41:40;5.90;;;3.10;;
78057;SDS011;67265;52.514;13.292;2023-04-25T03:44:07;6.57;;;2.22;;
78057;SDS011;67265;52.514;13.292;2023-04-25T03:46:33;5.88;;;2.13;;
78057;SDS011;67265;52.514;13.292;2023-04-25T03:48:59;3.50;;;1.83;;
78057;SDS011;67265;52.514;13.292;2023-04-25T03:51:26;5.57;;;1.77;;
78057;SDS011;67265;52.514;13.292;2023-04-25T03:53:52;5.75;;;2.72;;
78057;SDS011;67265;52.514;13.292;2023-04-25T03:56:19;5.35;;;2.17;;
78057;SDS011;67265;52.514;13.292;2023-04-25T03:58:47;4.15;;;2.13;;
78057;SDS011;67265;52.514;13.292;2023-04-25T04:01:14;4.95;;;2.10;;
78057;SDS011;67265;52.514;13.292;2023-04-25T04:03:40;6.10;;;2.10;;
78057;SDS011;67265;52.514;13.292;2023-04-25T04:06:07;4.93;;;2.25;;
78057;SDS011;67265;52.514;13.292;2023-04-25T04:08:34;4.50;;;2.05;;
78057;SDS011;67265;52.514;13.292;2023-04-25T04:11:01;4.97;;;2.33;;
78057;SDS011;67265;52.514;13.292;2023-04-25T04:13:28;3.13;;;2.20;;
78057;SDS011;67265;52.514;13.292;2023-04-25T04:15:55;6.10;;;1.83;;
78057;SDS011;67265;52.514;13.292;2023-04-25T04:18:22;5.60;;;2.47;;
78057;SDS011;67265;52.514;13.292;2023-04-25T04:20:49;5.63;;;2.13;;
78057;SDS011;67265;52.514;13.292;2023-04-25T04:23:15;6.75;;;2.25;;
78057;SDS011;67265;52.514;13.292;2023-04-25T04:25:42;6.30;;;1.92;;
78057;SDS011;67265;52.514;13.292;2023-04-25T04:28:09;6.28;;;2.05;;
78057;SDS011;67265;52.514;13.292;2023-04-25T04:30:37;6.93;;;2.17;;
78057;SDS011;67265;52.514;13.292;2023-04-25T04:33:05;5.65;;;2.08;;
78057;SDS011;67265;52.514;13.292;2023-04-25T04:35:32;6.68;;;1.88;;
78057;SDS011;67265;52.514;13.292;2023-04-25T04:37:59;4.65;;;1.88;;
78057;SDS011;67265;52.514;13.292;2023-04-25T04:40:25;4.95;;;2.22;;
78057;SDS011;67265;52.514;13.292;2023-04-25T04:42:52;4.78;;;1.92;;
78057;SDS011;67265;52.514;13.292;2023-04-25T04:45:19;5.43;;;2.30;;
78057;SDS011;67265;52.514;13.292;2023-04-25T04:47:46;4.18;;;1.98;;
78057;SDS011;67265;52.514;13.292;2023-04-25T04:50:14;4.45;;;2.20;;
78057;SDS011;67265;52.514;13.292;2023-04-25T04:52:42;4.65;;;2.25;;
78057;SDS011;67265;52.514;13.292;2023-04-25T04:55:08;3.53;;;1.75;;
78057;SDS011;67265;52.514;13.292;2023-04-25T04:57:35;5.72;;;1.75;;
78057;SDS011;67265;52.514;13.292;2023-04-25T05:00:02;7.55;;;1.40;;
78057;SDS011;67265;52.514;13.292;2023-04-25T05:02:31;4.75;;;1.83;;
78057;SDS011;67265;52.514;13.292;2023-04-25T05:04:57;7.40;;;2.10;;
78057;SDS011;67265;52.514;13.292;2023-04-25T05:07:24;7.43;;;2.20;;
78057;SDS011;67265;52.514;13.292;2023-04-25T05:09:51;8.27;;;2.25;;
78057;SDS011;67265;52.514;13.292;2023-04-25T05:12:17;3.92;;;2.10;;
78057;SDS011;67265;52.514;13.292;2023-04-25T05:14:43;5.95;;;1.73;;
78057;SDS011;67265;52.514;13.292;2023-04-25T05:17:10;6.20;;;2.63;;
78057;SDS011;67265;52.514;13.292;2023-04-25T05:19:36;4.75;;;1.48;;
78057;SDS011;67265;52.514;13.292;2023-04-25T05:22:03;6.45;;;2.10;;
78057;SDS011;67265;52.514;13.292;2023-04-25T05:24:29;4.35;;;1.73;;
78057;SDS011;67265;52.514;13.292;2023-04-25T05:26:56;4.78;;;1.88;;
78057;SDS011;67265;52.514;13.292;2023-04-25T05:29:23;3.20;;;1.85;;
78057;SDS011;67265;52.514;13.292;2023-04-25T05:31:50;7.63;;;2.10;;
78057;SDS011;67265;52.514;13.292;2023-04-25T05:34:16;5.97;;;2.22;;
78057;SDS011;67265;52.514;13.292;2023-04-25T05:36:43;5.30;;;1.95;;
78057;SDS011;67265;52.514;13.292;2023-04-25T05:39:09;4.00;;;2.05;;
78057;SDS011;67265;52.514;13.292;2023-04-25T05:41:36;4.90;;;2.17;;
78057;SDS011;67265;52.514;13.292;2023-04-25T05:44:03;3.95;;;1.70;;
78057;SDS011;67265;52.514;13.292;2023-04-25T05:46:29;3.53;;;1.80;;
78057;SDS011;67265;52.514;13.292;2023-04-25T05:48:56;6.70;;;2.45;;
78057;SDS011;67265;52.514;13.292;2023-04-25T05:51:22;7.45;;;2.00;;
78057;SDS011;67265;52.514;13.292;2023-04-25T05:53:49;6.28;;;2.65;;
78057;SDS011;67265;52.514;13.292;2023-04-25T05:56:16;4.95;;;2.42;;
78057;SDS011;67265;52.514;13.292;2023-04-25T05:58:42;6.13;;;2.33;;
78057;SDS011;67265;52.514;13.292;2023-04-25T06:01:09;5.22;;;2.53;;
78057;SDS011;67265;52.514;13.292;2023-04-25T06:03:35;6.97;;;3.08;;
78057;SDS011;67265;52.514;13.292;2023-04-25T06:06:04;6.63;;;2.33;;
78057;SDS011;67265;52.514;13.292;2023-04-25T06:08:31;7.55;;;2.55;;
78057;SDS011;67265;52.514;13.292;2023-04-25T06:10:57;4.60;;;2.67;;
78057;SDS011;67265;52.514;13.292;2023-04-25T06:13:24;4.28;;;2.53;;
78057;SDS011;67265;52.514;13.292;2023-04-25T06:15:50;6.35;;;2.78;;
78057;SDS011;67265;52.514;13.292;2023-04-25T06:18:17;5.35;;;2.35;;
78057;SDS011;67265;52.514;13.292;2023-04-25T06:20:43;6.97;;;2.47;;
78057;SDS011;67265;52.514;13.292;2023-04-25T06:23:10;5.82;;;2.88;;
78057;SDS011;67265;52.514;13.292;2023-04-25T06:25:36;9.25;;;2.58;;
78057;SDS011;67265;52.514;13.292;2023-04-25T06:28:03;6.00;;;2.60;;
78057;SDS011;67265;52.514;13.292;2023-04-25T06:30:29;5.47;;;2.70;;
78057;SDS011;67265;52.514;13.292;2023-04-25T06:32:56;8.88;;;3.95;;
78057;SDS011;67265;52.514;13.292;2023-04-25T06:35:23;6.18;;;2.58;;
78057;SDS011;67265;52.514;13.292;2023-04-25T06:37:49;4.82;;;2.85;;
78057;SDS011;67265;52.514;13.292;2023-04-25T06:40:16;6.55;;;2.50;;
78057;SDS011;67265;52.514;13.292;2023-04-25T06:42:43;8.85;;;2.60;;
78057;SDS011;67265;52.514;13.292;2023-04-25T06:45:10;7.65;;;2.47;;
78057;SDS011;67265;52.514;13.292;2023-04-25T06:47:36;6.80;;;2.60;;
78057;SDS011;67265;52.514;13.292;2023-04-25T06:50:03;4.43;;;2.15;;
78057;SDS011;67265;52.514;13.292;2023-04-25T06:52:30;8.48;;;2.60;;
78057;SDS011;67265;52.514;13.292;2023-04-25T06:54:57;6.03;;;2.00;;
78057;SDS011;67265;52.514;13.292;2023-04-25T06:57:24;7.10;;;3.25;;
78057;SDS011;67265;52.514;13.292;2023-04-25T06:59:51;6.63;;;2.55;;
78057;SDS011;67265;52.514;13.292;2023-04-25T07:02:18;6.28;;;2.13;;
78057;SDS011;67265;52.514;13.292;2023-04-25T07:04:44;5.82;;;2.30;;
78057;SDS011;67265;52.514;13.292;2023-04-25T07:07:12;6.18;;;2.20;;
78057;SDS011;67265;52.514;13.292;2023-04-25T07:09:39;5.97;;;2.05;;
78057;SDS011;67265;52.514;13.292;2023-04-25T07:12:05;5.65;;;2.50;;
78057;SDS011;67265;52.514;13.292;2023-04-25T07:14:32;6.45;;;2.20;;
78057;SDS011;67265;52.514;13.292;2023-04-25T07:16:58;5.63;;;2.25;;
78057;SDS011;67265;52.514;13.292;2023-04-25T07:19:25;6.50;;;1.90;;
78057;SDS011;67265;52.514;13.292;2023-04-25T07:21:52;8.38;;;2.33;;
78057;SDS011;67265;52.514;13.292;2023-04-25T07:24:19;8.45;;;3.08;;
78057;SDS011;67265;52.514;13.292;2023-04-25T07:26:45;5.18;;;2.22;;
78057;SDS011;67265;52.514;13.292;2023-04-25T07:29:12;6.72;;;2.60;;
78057;SDS011;67265;52.514;13.292;2023-04-25T07:31:38;6.85;;;2.30;;
78057;SDS011;67265;52.514;13.292;2023-04-25T07:34:05;8.00;;;2.10;;
78057;SDS011;67265;52.514;13.292;2023-04-25T07:36:32;5.80;;;2.28;;
78057;SDS011;67265;52.514;13.292;2023-04-25T07:38:58;7.47;;;2.60;;
78057;SDS011;67265;52.514;13.292;2023-04-25T07:41:25;8.40;;;2.20;;
78057;SDS011;67265;52.514;13.292;2023-04-25T07:43:51;9.50;;;2.15;;
78057;SDS011;67265;52.514;13.292;2023-04-25T07:46:18;16.63;;;2.38;;
78057;SDS011;67265;52.514;13.292;2023-04-25T07:48:44;8.48;;;1.60;;
78057;SDS011;67265;52.514;13.292;2023-04-25T07:51:11;10.45;;;2.70;;
78057;SDS011;67265;52.514;13.292;2023-04-25T07:53:37;9.50;;;1.90;;
78057;SDS011;67265;52.514;13.292;2023-04-25T07:56:04;9.38;;;1.67;;
78057;SDS011;67265;52.514;13.292;2023-04-25T07:58:31;11.30;;;2.53;;
78057;SDS011;67265;52.514;13.292;2023-04-25T08:00:58;11.80;;;2.75;;
78057;SDS011;67265;52.514;13.292;2023-04-25T08:03:24;9.35;;;2.17;;
78057;SDS011;67265;52.514;13.292;2023-04-25T08:05:51;11.90;;;2.15;;
78057;SDS011;67265;52.514;13.292;2023-04-25T08:08:18;8.73;;;1.95;;
78057;SDS011;67265;52.514;13.292;2023-04-25T08:10:45;14.98;;;1.85;;
78057;SDS011;67265;52.514;13.292;2023-04-25T08:13:11;18.70;;;1.98;;
78057;SDS011;67265;52.514;13.292;2023-04-25T08:15:37;8.73;;;1.98;;
78057;SDS011;67265;52.514;13.292;2023-04-25T08:18:04;9.30;;;1.63;;
78057;SDS011;67265;52.514;13.292;2023-04-25T08:20:31;8.13;;;1.73;;
78057;SDS011;67265;52.514;13.292;2023-04-25T08:22:58;7.97;;;1.85;;
78057;SDS011;67265;52.514;13.292;2023-04-25T08:25:24;14.68;;;1.98;;
78057;SDS011;67265;52.514;13.292;2023-04-25T08:27:51;7.60;;;1.60;;
78057;SDS011;67265;52.514;13.292;2023-04-25T08:30:17;12.95;;;2.10;;
78057;SDS011;67265;52.514;13.292;2023-04-25T08:32:44;10.52;;;2.03;;
78057;SDS011;67265;52.514;13.292;2023-04-25T08:35:11;10.70;;;1.77;;
78057;SDS011;67265;52.514;13.292;2023-04-25T08:37:37;7.03;;;2.17;;
78057;SDS011;67265;52.514;13.292;2023-04-25T08:40:04;16.27;;;2.58;;
78057;SDS011;67265;52.514;13.292;2023-04-25T08:42:33;14.95;;;1.77;;
78057;SDS011;67265;52.514;13.292;2023-04-25T08:45:01;5.80;;;1.38;;
78057;SDS011;67265;52.514;13.292;2023-04-25T08:47:32;8.02;;;1.65;;
78057;SDS011;67265;52.514;13.292;2023-04-25T08:50:02;7.22;;;1.33;;
78057;SDS011;67265;52.514;13.292;2023-04-25T08:52:31;5.65;;;1.65;;
78057;SDS011;67265;52.514;13.292;2023-04-25T08:55:01;8.57;;;1.50;;
78057;SDS011;67265;52.514;13.292;2023-04-25T08:57:29;8.63;;;1.73;;
78057;SDS011;67265;52.514;13.292;2023-04-25T08:59:56;8.55;;;1.25;;
78057;SDS011;67265;52.514;13.292;2023-04-25T09:02:23;4.85;;;1.20;;
78057;SDS011;67265;52.514;13.292;2023-04-25T09:04:51;11.20;;;1.42;;
78057;SDS011;67265;52.514;13.292;2023-04-25T09:07:17;6.00;;;1.08;;
78057;SDS011;67265;52.514;13.292;2023-04-25T09:09:47;7.70;;;1.52;;
78057;SDS011;67265;52.514;13.292;2023-04-25T09:12:14;10.77;;;1.35;;
78057;SDS011;67265;52.514;13.292;2023-04-25T09:14:40;5.10;;;1.13;;
78057;SDS011;67265;52.514;13.292;2023-04-25T09:17:08;7.15;;;1.60;;
78057;SDS011;67265;52.514;13.292;2023-04-25T09:19:35;6.53;;;1.30;;
78057;SDS011;67265;52.514;13.292;2023-04-25T09:22:07;5.13;;;1.17;;
78057;SDS011;67265;52.514;13.292;2023-04-25T09:24:37;3.83;;;0.93;;
78057;SDS011;67265;52.514;13.292;2023-04-25T09:27:12;7.18;;;1.20;;
78057;SDS011;67265;52.514;13.292;2023-04-25T09:29:44;8.15;;;1.48;;
78057;SDS011;67265;52.514;13.292;2023-04-25T09:32:11;4.90;;;1.02;;
78057;SDS011;67265;52.514;13.292;2023-04-25T09:34:41;8.02;;;1.52;;
78057;SDS011;67265;52.514;13.292;2023-04-25T09:37:10;7.50;;;1.17;;
78057;SDS011;67265;52.514;13.292;2023-04-25T09:39:38;5.47;;;1.10;;
78057;SDS011;67265;52.514;13.292;2023-04-25T09:42:05;6.50;;;1.20;;
78057;SDS011;67265;52.514;13.292;2023-04-25T09:44:31;6.97;;;1.10;;
78057;SDS011;67265;52.514;13.292;2023-04-25T09:46:58;5.90;;;1.30;;
78057;SDS011;67265;52.514;13.292;2023-04-25T09:49:25;6.57;;;1.35;;
78057;SDS011;67265;52.514;13.292;2023-04-25T09:51:57;7.40;;;1.25;;
78057;SDS011;67265;52.514;13.292;2023-04-25T09:56:53;7.55;;;1.55;;
78057;SDS011;67265;52.514;13.292;2023-04-25T09:59:21;6.90;;;1.10;;
78057;SDS011;67265;52.514;13.292;2023-04-25T10:01:49;3.53;;;0.95;;
78057;SDS011;67265;52.514;13.292;2023-04-25T10:04:19;5.95;;;1.00;;
78057;SDS011;67265;52.514;13.292;2023-04-25T10:06:48;5.55;;;1.17;;
78057;SDS011;67265;52.514;13.292;2023-04-25T10:09:16;6.90;;;1.10;;
78057;SDS011;67265;52.514;13.292;2023-04-25T10:11:46;4.65;;;1.05;;
78057;SDS011;67265;52.514;13.292;2023-04-25T10:14:16;2.03;;;0.93;;
78057;SDS011;67265;52.514;13.292;2023-04-25T10:16:43;5.72;;;0.80;;
78057;SDS011;67265;52.514;13.292;2023-04-25T10:19:11;6.38;;;1.38;;
78057;SDS011;67265;52.514;13.292;2023-04-25T10:21:44;5.43;;;1.35;;
78057;SDS011;67265;52.514;13.292;2023-04-25T10:24:14;6.38;;;1.58;;
78057;SDS011;67265;52.514;13.292;2023-04-25T10:26:41;5.75;;;0.85;;
78057;SDS011;67265;52.514;13.292;2023-04-25T10:29:08;7.75;;;1.42;;
78057;SDS011;67265;52.514;13.292;2023-04-25T10:31:37;4.75;;;0.93;;
78057;SDS011;67265;52.514;13.292;2023-04-25T10:34:11;3.13;;;1.30;;
78057;SDS011;67265;52.514;13.292;2023-04-25T10:36:38;5.85;;;1.17;;
78057;SDS011;67265;52.514;13.292;2023-04-25T10:39:04;6.70;;;1.08;;
78057;SDS011;67265;52.514;13.292;2023-04-25T10:41:56;8.63;;;1.27;;
78057;SDS011;67265;52.514;13.292;2023-04-25T10:44:26;2.90;;;1.00;;
78057;SDS011;67265;52.514;13.292;2023-04-25T10:46:58;5.07;;;1.38;;
78057;SDS011;67265;52.514;13.292;2023-04-25T10:54:41;8.25;;;1.20;;
78057;SDS011;67265;52.514;13.292;2023-04-25T10:57:25;5.32;;;1.10;;
78057;SDS011;67265;52.514;13.292;2023-04-25T11:02:40;5.15;;;1.10;;
78057;SDS011;67265;52.514;13.292;2023-04-25T11:05:29;3.80;;;0.60;;
78057;SDS011;67265;52.514;13.292;2023-04-25T11:08:10;4.07;;;0.57;;
78057;SDS011;67265;52.514;13.292;2023-04-25T11:10:37;5.43;;;1.17;;
78057;SDS011;67265;52.514;13.292;2023-04-25T11:13:06;5.28;;;1.35;;
78057;SDS011;67265;52.514;13.292;2023-04-25T11:15:32;9.73;;;1.20;;
78057;SDS011;67265;52.514;13.292;2023-04-25T11:17:59;2.40;;;1.15;;
78057;SDS011;67265;52.514;13.292;2023-04-25T11:20:26;4.18;;;1.02;;
78057;SDS011;67265;52.514;13.292;2023-04-25T11:22:54;4.45;;;0.80;;
78057;SDS011;67265;52.514;13.292;2023-04-25T11:25:24;4.90;;;0.77;;
78057;SDS011;67265;52.514;13.292;2023-04-25T11:27:55;7.05;;;1.50;;
78057;SDS011;67265;52.514;13.292;2023-04-25T11:30:24;2.33;;;0.70;;
78057;SDS011;67265;52.514;13.292;2023-04-25T11:32:51;5.28;;;0.95;;
78057;SDS011;67265;52.514;13.292;2023-04-25T11:35:19;4.93;;;0.95;;
78057;SDS011;67265;52.514;13.292;2023-04-25T11:37:47;5.22;;;0.93;;
78057;SDS011;67265;52.514;13.292;2023-04-25T11:40:13;4.47;;;0.88;;
78057;SDS011;67265;52.514;13.292;2023-04-25T11:42:44;3.13;;;0.90;;
78057;SDS011;67265;52.514;13.292;2023-04-25T11:45:11;4.32;;;0.68;;
78057;SDS011;67265;52.514;13.292;2023-04-25T11:47:39;5.95;;;0.90;;
78057;SDS011;67265;52.514;13.292;2023-04-25T11:50:06;3.05;;;0.50;;
78057;SDS011;67265;52.514;13.292;2023-04-25T11:52:43;4.72;;;1.00;;
78057;SDS011;67265;52.514;13.292;2023-04-25T11:57:41;3.13;;;1.23;;
78057;SDS011;67265;52.514;13.292;2023-04-25T12:00:09;4.22;;;0.90;;
78057;SDS011;67265;52.514;13.292;2023-04-25T12:02:40;5.03;;;0.82;;
78057;SDS011;67265;52.514;13.292;2023-04-25T12:05:08;2.58;;;0.60;;
78057;SDS011;67265;52.514;13.292;2023-04-25T12:07:55;6.15;;;1.08;;
78057;SDS011;67265;52.514;13.292;2023-04-25T12:10:23;5.20;;;0.80;;
78057;SDS011;67265;52.514;13.292;2023-04-25T12:12:51;3.90;;;0.90;;
78057;SDS011;67265;52.514;13.292;2023-04-25T12:15:23;9.38;;;1.20;;
78057;SDS011;67265;52.514;13.292;2023-04-25T12:17:51;2.17;;;0.60;;
78057;SDS011;67265;52.514;13.292;2023-04-25T12:20:20;4.93;;;0.75;;
78057;SDS011;67265;52.514;13.292;2023-04-25T12:22:50;3.83;;;0.85;;
78057;SDS011;67265;52.514;13.292;2023-04-25T12:25:38;3.95;;;0.98;;
78057;SDS011;67265;52.514;13.292;2023-04-25T12:28:20;5.72;;;1.33;;
78057;SDS011;67265;52.514;13.292;2023-04-25T12:33:24;4.30;;;0.73;;
78057;SDS011;67265;52.514;13.292;2023-04-25T12:35:55;4.93;;;1.40;;
78057;SDS011;67265;52.514;13.292;2023-04-25T12:38:29;4.00;;;0.88;;
78057;SDS011;67265;52.514;13.292;2023-04-25T12:40:57;2.75;;;0.95;;
78057;SDS011;67265;52.514;13.292;2023-04-25T12:43:24;3.90;;;1.38;;
78057;SDS011;67265;52.514;13.292;2023-04-25T12:45:51;5.10;;;0.82;;
78057;SDS011;67265;52.514;13.292;2023-04-25T12:48:19;2.08;;;0.70;;
78057;SDS011;67265;52.514;13.292;2023-04-25T12:50:46;3.85;;;0.90;;
78057;SDS011;67265;52.514;13.292;2023-04-25T12:53:16;5.00;;;1.00;;
78057;SDS011;67265;52.514;13.292;2023-04-25T12:55:46;4.45;;;1.08;;
78057;SDS011;67265;52.514;13.292;2023-04-25T12:58:13;4.22;;;0.90;;
78057;SDS011;67265;52.514;13.292;2023-04-25T13:00:44;3.33;;;0.57;;
78057;SDS011;67265;52.514;13.292;2023-04-25T13:03:10;3.55;;;0.95;;
78057;SDS011;67265;52.514;13.292;2023-04-25T13:05:38;4.20;;;0.90;;
78057;SDS011;67265;52.514;13.292;2023-04-25T13:08:05;3.63;;;1.10;;
78057;SDS011;67265;52.514;13.292;2023-04-25T13:10:31;4.25;;;0.57;;
78057;SDS011;67265;52.514;13.292;2023-04-25T13:12:59;4.90;;;0.68;;
78057;SDS011;67265;52.514;13.292;2023-04-25T13:15:27;2.58;;;0.60;;
78057;SDS011;67265;52.514;13.292;2023-04-25T13:17:53;1.50;;;0.32;;
78057;SDS011;67265;52.514;13.292;2023-04-25T13:20:20;3.90;;;0.60;;
78057;SDS011;67265;52.514;13.292;2023-04-25T13:22:48;2.83;;;0.60;;
78057;SDS011;67265;52.514;13.292;2023-04-25T13:25:15;3.28;;;0.82;;
78057;SDS011;67265;52.514;13.292;2023-04-25T13:27:42;3.90;;;0.73;;
78057;SDS011;67265;52.514;13.292;2023-04-25T13:30:10;2.17;;;0.70;;
78057;SDS011;67265;52.514;13.292;2023-04-25T13:32:37;2.55;;;0.82;;
78057;SDS011;67265;52.514;13.292;2023-04-25T13:35:04;2.58;;;0.52;;
78057;SDS011;67265;52.514;13.292;2023-04-25T13:37:36;2.80;;;0.90;;
78057;SDS011;67265;52.514;13.292;2023-04-25T13:40:05;3.08;;;0.57;;
78057;SDS011;67265;52.514;13.292;2023-04-25T13:42:38;3.40;;;0.95;;
78057;SDS011;67265;52.514;13.292;2023-04-25T13:45:04;4.03;;;1.23;;
78057;SDS011;67265;52.514;13.292;2023-04-25T13:47:31;3.65;;;0.65;;
78057;SDS011;67265;52.514;13.292;2023-04-25T13:49:58;3.13;;;0.82;;
78057;SDS011;67265;52.514;13.292;2023-04-25T13:52:25;2.33;;;0.57;;
78057;SDS011;67265;52.514;13.292;2023-04-25T13:54:52;4.70;;;0.82;;
78057;SDS011;67265;52.514;13.292;2023-04-25T13:57:18;1.98;;;0.60;;
78057;SDS011;67265;52.514;13.292;2023-04-25T13:59:45;4.18;;;0.82;;
78057;SDS011;67265;52.514;13.292;2023-04-25T14:02:12;6.75;;;1.08;;
78057;SDS011;67265;52.514;13.292;2023-04-25T14:04:39;4.55;;;1.27;;
78057;SDS011;67265;52.514;13.292;2023-04-25T14:07:05;5.18;;;0.63;;
78057;SDS011;67265;52.514;13.292;2023-04-25T14:09:32;2.10;;;0.75;;
78057;SDS011;67265;52.514;13.292;2023-04-25T14:11:58;2.17;;;0.82;;
78057;SDS011;67265;52.514;13.292;2023-04-25T14:14:25;3.33;;;0.77;;
78057;SDS011;67265;52.514;13.292;2023-04-25T14:16:53;3.47;;;0.45;;
78057;SDS011;67265;52.514;13.292;2023-04-25T14:19:23;3.40;;;0.77;;
78057;SDS011;67265;52.514;13.292;2023-04-25T14:21:50;6.53;;;0.75;;
78057;SDS011;67265;52.514;13.292;2023-04-25T14:24:17;2.35;;;0.43;;
78057;SDS011;67265;52.514;13.292;2023-04-25T14:26:43;2.78;;;0.63;;
78057;SDS011;67265;52.514;13.292;2023-04-25T14:29:10;3.10;;;0.57;;
78057;SDS011;67265;52.514;13.292;2023-04-25T14:31:38;3.55;;;0.70;;
78057;SDS011;67265;52.514;13.292;2023-04-25T14:34:06;2.30;;;0.55;;
78057;SDS011;67265;52.514;13.292;2023-04-25T14:36:33;2.55;;;0.70;;
78057;SDS011;67265;52.514;13.292;2023-04-25T14:39:00;1.55;;;0.60;;
78057;SDS011;67265;52.514;13.292;2023-04-25T14:41:27;3.97;;;0.43;;
78057;SDS011;67265;52.514;13.292;2023-04-25T14:43:53;3.22;;;0.45;;
78057;SDS011;67265;52.514;13.292;2023-04-25T14:46:20;2.63;;;1.27;;
78057;SDS011;67265;52.514;13.292;2023-04-25T14:48:48;3.53;;;0.90;;
78057;SDS011;67265;52.514;13.292;2023-04-25T14:51:15;1.33;;;0.50;;
78057;SDS011;67265;52.514;13.292;2023-04-25T14:53:41;3.50;;;0.95;;